Battle Point — NMBY — position and weather

sailwx.info

Track history (hours):
 
Tides and Currents Weather Stations Pressure Air Temp Water Temp Dewpoint Dewpoint Depression Visibility Wind Speed Wind Dir Waves Ship Positions

Battle Point

Last reported at 2014-Dec-18 03:33 UTC. Time now 2014-Dec-19 04:00 UTC.
Position N 47°46' W 122°44'.

Length 57 m; draft 3.2 m.

MMSI: 369970254.

Date/timePositionNaut miles runAvg speedWind from/ knotsBaromVisibWave heightAir tempDewpointWater temp
2014-Dec-18 03:33N 47°46' W 122°44'9 9.4
2014-Dec-18 02:33N 47°53' W 122°36'9 9.0
2014-Dec-18 01:33N 48°02' W 122°39'9 7.2
2014-Dec-18 00:18N 48°10' W 122°45'6 7.9
2014-Dec-17 23:33N 48°15' W 122°49'1111.4
2014-Dec-17 22:33N 48°26' W 122°45'1111.5
2014-Dec-17 21:33N 48°38' W 122°45'1010.1
2014-Dec-17 20:33N 48°47' W 122°52'1111.3
2014-Dec-17 19:33N 48°53' W 123°06'1111.2
2014-Dec-17 18:33N 48°59' W 123°20'1211.5
2014-Dec-17 17:33N 49°07' W 123°33'1010.5
2014-Dec-17 16:33N 49°13' W 123°46'1110.8
2014-Dec-17 15:31N 49°16' W 124°03'1 0.0
2014-Dec-17 00:33N 49°16' W 124°02'1 0.0
2014-Dec-15 18:13N 49°16' W 124°04'5 6.9
2014-Dec-15 17:33N 49°18' W 123°58'6 6.2
2014-Dec-15 16:31N 49°16' W 124°07'1 0.1
2014-Dec-15 03:05N 49°16' W 124°05'611.5
2014-Dec-15 02:33N 49°15' W 123°56'1111.1
2014-Dec-15 01:33N 49°11' W 123°40'1010.4
2014-Dec-15 00:33N 49°06' W 123°26'1010.1
2014-Dec-14 23:34N 49°00' W 123°14'1010.0
2014-Dec-14 22:33N 48°54' W 123°02'1110.7
2014-Dec-14 21:33N 48°47' W 122°50'1010.1
2014-Dec-14 20:33N 48°37' W 122°44'1211.1
2014-Dec-14 19:30N 48°26' W 122°44'1111.3
2014-Dec-14 18:33N 48°15' W 122°47'10 9.6
2014-Dec-14 17:30N 48°07' W 122°39'1010.5
2014-Dec-14 16:33N 47°57' W 122°38'8 8.1
2014-Dec-14 15:34N 47°49' W 122°41'  
Track history (hours):
 
Tides and Currents Weather Stations Pressure Air Temp Water Temp Dewpoint Dewpoint Depression Visibility Wind Speed Wind Dir Waves Ship Positions

Battle Point

Last reported at 2014-Dec-18 03:33 UTC. Time now 2014-Dec-19 04:00 UTC.
Position N 47°46' W 122°44'.

Length 57 m; draft 3.2 m.

MMSI: 369970254.

Date/timePositionNaut miles runAvg speedWind from/ knotsBaromVisibWave heightAir tempDewpointWater temp
2014-Dec-18 03:33N 47°46' W 122°44'9 9.4
2014-Dec-18 02:33N 47°53' W 122°36'9 9.0
2014-Dec-18 01:33N 48°02' W 122°39'9 7.2
2014-Dec-18 00:18N 48°10' W 122°45'6 7.9
2014-Dec-17 23:33N 48°15' W 122°49'1111.4
2014-Dec-17 22:33N 48°26' W 122°45'1111.5
2014-Dec-17 21:33N 48°38' W 122°45'1010.1
2014-Dec-17 20:33N 48°47' W 122°52'1111.3
2014-Dec-17 19:33N 48°53' W 123°06'1111.2
2014-Dec-17 18:33N 48°59' W 123°20'1211.5
2014-Dec-17 17:33N 49°07' W 123°33'1010.5
2014-Dec-17 16:33N 49°13' W 123°46'1110.8
2014-Dec-17 15:31N 49°16' W 124°03'1 0.0
2014-Dec-17 00:33N 49°16' W 124°02'1 0.0
2014-Dec-15 18:13N 49°16' W 124°04'5 6.9
2014-Dec-15 17:33N 49°18' W 123°58'6 6.2
2014-Dec-15 16:31N 49°16' W 124°07'1 0.1
2014-Dec-15 03:05N 49°16' W 124°05'611.5
2014-Dec-15 02:33N 49°15' W 123°56'1111.1
2014-Dec-15 01:33N 49°11' W 123°40'1010.4
2014-Dec-15 00:33N 49°06' W 123°26'1010.1
2014-Dec-14 23:34N 49°00' W 123°14'1010.0
2014-Dec-14 22:33N 48°54' W 123°02'1110.7
2014-Dec-14 21:33N 48°47' W 122°50'1010.1
2014-Dec-14 20:33N 48°37' W 122°44'1211.1
2014-Dec-14 19:30N 48°26' W 122°44'1111.3
2014-Dec-14 18:33N 48°15' W 122°47'10 9.6
2014-Dec-14 17:30N 48°07' W 122°39'1010.5
2014-Dec-14 16:33N 47°57' W 122°38'8 8.1
2014-Dec-14 15:34N 47°49' W 122°41'  

Dump ship's entire track history